Time;durP1;ratioP1;P1;durP2;ratioP2;P2;SDS_P1;SDS_P2;PMS_P1;PMS_P2;Temp;Humidity;BMP_temperature;BMP_pressure;BME280_temperature;BME280_humidity;BME280_pressure;Samples;Min_cycle;Max_cycle;Signal;HPM_P1;HPM_P2
2021/06/22 00:01:18;;;;;;;15.47;9.93;;;;;;;;;;20659096;28;20586;-54
2021/06/22 00:11:18;;;;;;;6.80;5.40;;;;;;;;;;20637222;28;20760;-55
2021/06/22 00:21:18;;;;;;;6.77;5.83;;;;;;;;;;20658931;28;20229;-57
2021/06/22 00:31:19;;;;;;;8.77;5.80;;;;;;;;;;20640729;28;20224;-61
2021/06/22 00:41:20;;;;;;;8.63;7.77;;;;;;;;;;20650613;28;20365;-62
2021/06/22 00:51:20;;;;;;;7.37;6.47;;;;;;;;;;20647279;28;20233;-59
2021/06/22 01:01:21;;;;;;;7.10;5.90;;;;;;;;;;20641731;28;20297;-55
2021/06/22 01:11:21;;;;;;;5.87;5.37;;;;;;;;;;20654454;28;20229;-56
2021/06/22 01:21:21;;;;;;;5.63;5.13;;;;;;;;;;20631470;28;20621;-54
2021/06/22 01:31:22;;;;;;;6.17;5.57;;;;;;;;;;20652658;28;20221;-56
2021/06/22 01:41:22;;;;;;;8.30;7.03;;;;;;;;;;20642898;28;20283;-60
2021/06/22 01:51:23;;;;;;;7.07;6.40;;;;;;;;;;20662864;28;20703;-62
2021/06/22 02:01:23;;;;;;;6.90;6.17;;;;;;;;;;20653070;28;20639;-55
2021/06/22 02:11:23;;;;;;;8.57;7.50;;;;;;;;;;20627827;28;20221;-60
2021/06/22 02:21:23;;;;;;;8.03;7.33;;;;;;;;;;20649541;28;20221;-54
2021/06/22 02:31:24;;;;;;;7.43;6.60;;;;;;;;;;20632934;28;20350;-55
2021/06/22 02:41:24;;;;;;;8.33;6.27;;;;;;;;;;20641921;28;20229;-55
2021/06/22 02:51:24;;;;;;;7.93;6.53;;;;;;;;;;20639093;28;20299;-60
2021/06/22 03:01:25;;;;;;;7.63;6.67;;;;;;;;;;20633170;28;20240;-55
2021/06/22 03:11:25;;;;;;;9.40;5.73;;;;;;;;;;20647280;28;20230;-68
2021/06/22 03:21:25;;;;;;;6.37;5.03;;;;;;;;;;20624297;28;20703;-55
2021/06/22 03:31:26;;;;;;;7.70;5.07;;;;;;;;;;20646011;28;20762;-56
2021/06/22 03:41:26;;;;;;;6.85;5.50;;;;;;;;;;20624308;28;20601;-56
2021/06/22 03:51:26;;;;;;;6.55;5.30;;;;;;;;;;20645114;28;20209;-55
2021/06/22 04:01:27;;;;;;;10.05;5.40;;;;;;;;;;20630230;28;20229;-57
2021/06/22 04:11:28;;;;;;;7.30;4.85;;;;;;;;;;20652498;28;20226;-55
2021/06/22 04:21:28;;;;;;;9.00;4.65;;;;;;;;;;20652363;28;20222;-60
2021/06/22 04:31:29;;;;;;;9.20;4.95;;;;;;;;;;20643445;28;20216;-55
2021/06/22 04:41:29;;;;;;;6.13;4.75;;;;;;;;;;20656967;28;20222;-56
2021/06/22 04:51:30;;;;;;;10.82;4.43;;;;;;;;;;20634641;28;20216;-59
2021/06/22 05:01:30;;;;;;;10.73;4.78;;;;;;;;;;20655931;28;20217;-56
2021/06/22 05:11:31;;;;;;;6.38;5.05;;;;;;;;;;20604630;28;20238;-57
2021/06/22 05:21:31;;;;;;;10.75;4.82;;;;;;;;;;20599675;28;20229;-55
2021/06/22 05:31:31;;;;;;;7.50;5.50;;;;;;;;;;20574856;28;20213;-56
2021/06/22 05:41:32;;;;;;;12.32;5.50;;;;;;;;;;20692179;28;20259;-57
2021/06/22 05:51:32;;;;;;;9.35;6.68;;;;;;;;;;20562484;28;20228;-54
2021/06/22 06:01:32;;;;;;;12.02;5.72;;;;;;;;;;20510199;28;20361;-55
2021/06/22 06:11:33;;;;;;;9.40;5.97;;;;;;;;;;20494460;28;20654;-55
2021/06/22 06:21:33;;;;;;;20.10;6.50;;;;;;;;;;20472206;29;20358;-54
2021/06/22 06:31:33;;;;;;;113.57;11.80;;;;;;;;;;20493874;28;20258;-55
2021/06/22 06:41:34;;;;;;;38.60;8.15;;;;;;;;;;20470986;29;20202;-54
2021/06/22 06:51:34;;;;;;;14.98;6.10;;;;;;;;;;20492308;29;20163;-55
2021/06/22 07:01:34;;;;;;;19.83;6.60;;;;;;;;;;20477513;29;20578;-55
2021/06/22 07:11:35;;;;;;;16.80;5.57;;;;;;;;;;20485234;28;20239;-55
2021/06/22 07:21:35;;;;;;;186.90;13.98;;;;;;;;;;20484859;28;20206;-55
2021/06/22 07:31:36;;;;;;;43.25;7.70;;;;;;;;;;20476610;29;20183;-55
2021/06/22 07:41:36;;;;;;;11.07;4.95;;;;;;;;;;20500118;28;20687;-56
2021/06/22 07:51:36;;;;;;;10.82;5.07;;;;;;;;;;20483977;29;20242;-55
2021/06/22 08:01:37;;;;;;;11.65;5.28;;;;;;;;;;20506761;29;20211;-58
2021/06/22 08:11:37;;;;;;;14.32;5.68;;;;;;;;;;20482387;28;20321;-56
2021/06/22 08:21:38;;;;;;;8.10;4.95;;;;;;;;;;20503593;29;20214;-57
2021/06/22 08:31:39;;;;;;;8.30;4.85;;;;;;;;;;20487947;29;20167;-56
2021/06/22 08:41:40;;;;;;;12.98;4.97;;;;;;;;;;20495581;29;20198;-55
2021/06/22 08:51:41;;;;;;;5.13;3.78;;;;;;;;;;20493757;28;20164;-55
2021/06/22 09:01:42;;;;;;;10.98;4.43;;;;;;;;;;20477496;29;20503;-57
2021/06/22 09:12:02;;;;;;;5.75;3.65;;;;;;;;;;20427920;28;20243;-55
2021/06/22 09:22:15;;;;;;;19.83;10.93;;;;;;;;;;20397754;29;20223;-56
2021/06/22 09:32:27;;;;;;;7.70;4.78;;;;;;;;;;20419510;29;20171;-57
2021/06/22 09:42:33;;;;;;;5.20;3.67;;;;;;;;;;20397018;29;20215;-62
2021/06/22 09:52:33;;;;;;;9.05;4.40;;;;;;;;;;20417957;29;20175;-57
2021/06/22 10:02:50;;;;;;;5.70;4.30;;;;;;;;;;20399050;29;20218;-57
2021/06/22 10:12:50;;;;;;;6.03;4.22;;;;;;;;;;20493033;29;20213;-56
2021/06/22 10:22:51;;;;;;;7.22;3.83;;;;;;;;;;20484174;29;20210;-57
2021/06/22 10:32:51;;;;;;;4.00;3.22;;;;;;;;;;20483296;29;20190;-56
2021/06/22 10:42:53;;;;;;;11.88;3.65;;;;;;;;;;20490875;29;20893;-62
2021/06/22 10:52:57;;;;;;;5.63;2.90;;;;;;;;;;20473039;29;20520;-56
2021/06/22 11:03:04;;;;;;;6.82;3.20;;;;;;;;;;20472439;28;20247;-56
2021/06/22 11:13:04;;;;;;;6.45;3.10;;;;;;;;;;20453292;28;20812;-56
2021/06/22 11:23:09;;;;;;;3.83;3.20;;;;;;;;;;20487623;29;20214;-56
2021/06/22 11:33:44;;;;;;;6.75;3.55;;;;;;;;;;20468663;29;20233;-56
2021/06/22 11:44:03;;;;;;;6.13;3.65;;;;;;;;;;20391871;29;20234;-58
2021/06/22 11:54:03;;;;;;;3.30;2.97;;;;;;;;;;20379643;29;20191;-56
2021/06/22 12:04:05;;;;;;;5.68;3.10;;;;;;;;;;20384602;29;20247;-56
2021/06/22 12:14:05;;;;;;;7.60;3.03;;;;;;;;;;20409892;29;20999;-55
2021/06/22 12:24:07;;;;;;;3.90;3.53;;;;;;;;;;20466320;28;20214;-55
2021/06/22 12:34:08;;;;;;;5.55;3.80;;;;;;;;;;20480592;29;20206;-54
2021/06/22 12:44:08;;;;;;;9.07;4.60;;;;;;;;;;20459958;29;20223;-54
2021/06/22 12:54:10;;;;;;;5.85;4.05;;;;;;;;;;20479028;29;20283;-55
2021/06/22 13:04:12;;;;;;;7.88;3.78;;;;;;;;;;20457383;28;20234;-54
2021/06/22 13:14:14;;;;;;;3.33;3.03;;;;;;;;;;20476043;28;20175;-56
2021/06/22 13:24:37;;;;;;;4.65;3.65;;;;;;;;;;20463187;29;20624;-60
2021/06/22 13:34:38;;;;;;;5.95;3.60;;;;;;;;;;20476391;28;20529;-53
2021/06/22 13:44:43;;;;;;;5.78;3.30;;;;;;;;;;20479701;29;20218;-54
2021/06/22 13:55:04;;;;;;;4.53;3.35;;;;;;;;;;20473730;29;20621;-56
2021/06/22 14:05:04;;;;;;;6.32;3.00;;;;;;;;;;20485629;28;20696;-53
2021/06/22 14:15:05;;;;;;;3.83;3.25;;;;;;;;;;20465132;29;20183;-54
2021/06/22 14:25:06;;;;;;;7.30;3.03;;;;;;;;;;20492662;29;20712;-54
2021/06/22 14:35:09;;;;;;;6.00;2.90;;;;;;;;;;20494109;29;20187;-58
2021/06/22 14:45:10;;;;;;;5.68;3.17;;;;;;;;;;20474157;29;20382;-53
2021/06/22 14:55:32;;;;;;;4.70;3.25;;;;;;;;;;20491336;28;20186;-57
2021/06/22 15:05:33;;;;;;;5.03;2.97;;;;;;;;;;20528704;28;20246;-60
2021/06/22 15:15:34;;;;;;;5.40;3.05;;;;;;;;;;20556245;28;20198;-52
2021/06/22 15:25:34;;;;;;;74.25;6.85;;;;;;;;;;20554942;28;20305;-53
2021/06/22 15:35:35;;;;;;;21.05;4.70;;;;;;;;;;20547426;28;20225;-53
2021/06/22 15:45:36;;;;;;;11.75;4.57;;;;;;;;;;20639587;28;20729;-55
2021/06/22 15:55:37;;;;;;;13.50;4.50;;;;;;;;;;20617636;28;20181;-54
2021/06/22 16:05:39;;;;;;;9.35;4.63;;;;;;;;;;20647239;28;20237;-53
2021/06/22 19:50:36;;;;;;;9.13;8.37;;;;;;;32.81;54.29;100186.47;20698624;27;8119633;-63
2021/06/22 20:00:37;;;;;;;8.80;8.10;;;;;;;32.60;54.01;100189.91;20915036;28;20227;-64
2021/06/22 20:10:37;;;;;;;10.47;9.07;;;;;;;32.64;53.85;100191.06;20873739;28;20717;-63
2021/06/22 20:20:38;;;;;;;10.17;9.27;;;;;;;32.89;53.95;100210.94;20952632;28;20715;-64
2021/06/22 20:30:38;;;;;;;12.33;11.23;;;;;;;32.15;55.03;100168.47;21022662;28;20241;-65
2021/06/22 20:40:39;;;;;;;11.03;10.03;;;;;;;32.53;53.84;100182.59;21032845;28;20218;-65
2021/06/22 20:50:39;;;;;;;13.43;12.17;;;;;;;31.39;56.31;100172.22;20959361;28;20214;-64
2021/06/22 21:00:40;;;;;;;14.37;13.17;;;;;;;31.27;56.18;100188.75;20966811;28;20230;-65
2021/06/22 21:10:40;;;;;;;15.63;14.37;;;;;;;31.06;56.57;100184.59;20944549;28;20284;-64
2021/06/22 21:20:41;;;;;;;17.30;15.63;;;;;;;30.95;56.28;100185.38;20984055;28;20215;-64
2021/06/22 21:30:41;;;;;;;16.33;14.83;;;;;;;30.95;55.85;100155.06;20942473;28;20229;-67
2021/06/22 21:40:42;;;;;;;15.47;14.03;;;;;;;31.18;55.42;100178.28;20964466;28;20207;-67
2021/06/22 21:50:42;;;;;;;13.40;12.30;;;;;;;31.27;54.91;100193.44;20979965;28;20325;-65
2021/06/22 22:00:43;;;;;;;14.27;13.00;;;;;;;31.34;54.26;100177.59;20974986;28;20223;-67
2021/06/22 22:10:43;;;;;;;14.80;13.53;;;;;;;31.23;54.32;100178.44;20952620;28;20228;-66
2021/06/22 22:20:44;;;;;;;15.10;13.73;;;;;;;31.24;54.24;100169.09;20989315;28;20219;-64
2021/06/22 22:30:44;;;;;;;14.07;12.90;;;;;;;31.15;54.26;100182.38;20976391;28;20237;-65
2021/06/22 22:40:45;;;;;;;15.40;14.23;;;;;;;30.95;54.84;100185.38;20956481;28;20362;-64
2021/06/22 22:50:45;;;;;;;17.03;15.63;;;;;;;30.67;55.30;100201.72;20976762;28;20234;-63
2021/06/22 23:00:46;;;;;;;17.70;16.20;;;;;;;30.56;55.58;100207.97;20919547;28;20219;-66
2021/06/22 23:10:46;;;;;;;16.70;15.40;;;;;;;30.56;55.30;100227.25;20975745;28;20464;-65
2021/06/22 23:20:47;;;;;;;21.43;19.57;;;;;;;30.16;56.26;100204.84;20940152;28;20305;-64
2021/06/22 23:30:47;;;;;;;19.00;17.30;;;;;;;30.18;55.73;100202.72;20969927;28;20223;-66
2021/06/22 23:40:48;;;;;;;18.63;17.13;;;;;;;30.11;56.18;100177.16;20965069;28;20246;-67
2021/06/22 23:50:48;;;;;;;21.53;19.63;;;;;;;30.12;55.75;100187.09;20960999;28;20219;-64
